Time;durP1;ratioP1;P1;durP2;ratioP2;P2;SDS_P1;SDS_P2;PMS_P1;PMS_P2;Temp;Humidity;BMP_temperature;BMP_pressure;BME280_temperature;BME280_humidity;BME280_pressure;Samples;Min_cycle;Max_cycle;Signal;HPM_P1;HPM_P2
2021/03/07 00:01:53;;;;;;;24.45;9.45;;;-0.40;85.10;;;;;;6306201;22;20467;-70
2021/03/07 00:04:19;;;;;;;21.92;9.00;;;-0.40;84.90;;;;;;6334862;22;20445;-70
2021/03/07 00:06:45;;;;;;;20.42;8.55;;;-0.40;84.90;;;;;;6333321;22;20547;-71
2021/03/07 00:09:11;;;;;;;23.58;10.13;;;-0.50;85.30;;;;;;6306275;22;20018;-70
2021/03/07 00:11:37;;;;;;;22.73;9.18;;;-0.40;84.90;;;;;;6280451;22;20464;-71
2021/03/07 00:14:03;;;;;;;22.88;9.68;;;-0.40;85.00;;;;;;6334011;22;20047;-70
2021/03/07 00:16:29;;;;;;;25.98;9.63;;;-0.40;84.80;;;;;;6336412;22;20330;-70
2021/03/07 00:18:55;;;;;;;24.90;8.77;;;-0.40;85.90;;;;;;6307439;22;20025;-70
2021/03/07 00:21:23;;;;;;;21.85;9.82;;;-0.40;85.70;;;;;;6333464;22;20042;-70
2021/03/07 00:23:49;;;;;;;28.13;9.93;;;-0.50;86.00;;;;;;6336147;22;20026;-71
2021/03/07 00:26:15;;;;;;;27.15;10.35;;;-0.40;86.10;;;;;;6306002;22;20019;-70
2021/03/07 00:28:41;;;;;;;25.58;10.60;;;-0.40;85.70;;;;;;6332945;22;20574;-71
2021/03/07 00:31:07;;;;;;;27.02;10.90;;;-0.30;85.50;;;;;;6336134;22;20018;-70
2021/03/07 00:33:33;;;;;;;27.15;10.18;;;-0.20;85.10;;;;;;6333854;22;20460;-71
2021/03/07 00:35:59;;;;;;;23.55;10.15;;;-0.10;84.30;;;;;;6333320;22;20054;-70
2021/03/07 00:38:25;;;;;;;32.75;11.07;;;-0.10;84.30;;;;;;6282417;22;20019;-70
2021/03/07 00:40:50;;;;;;;28.25;11.00;;;0.00;84.20;;;;;;6305725;22;20399;-70
2021/03/07 00:43:17;;;;;;;28.35;11.65;;;0.00;83.90;;;;;;6333505;22;20103;-71
2021/03/07 00:45:43;;;;;;;26.10;10.95;;;0.00;83.80;;;;;;6308303;22;20468;-71
2021/03/07 00:48:09;;;;;;;29.77;10.80;;;0.10;83.50;;;;;;6305880;22;20029;-70
2021/03/07 00:50:35;;;;;;;27.27;11.43;;;0.10;84.00;;;;;;6333799;22;20015;-71
2021/03/07 00:53:01;;;;;;;27.27;11.05;;;0.10;84.10;;;;;;6305612;22;20041;-71
2021/03/07 00:55:27;;;;;;;26.27;10.18;;;0.10;84.00;;;;;;6306781;22;20126;-70
2021/03/07 00:57:53;;;;;;;18.90;10.00;;;0.10;83.70;;;;;;6332642;22;20117;-70
2021/03/07 01:00:25;;;;;;;25.08;9.95;;;0.20;83.80;;;;;;6308350;22;20393;-71
2021/03/07 01:02:51;;;;;;;;;;;0.20;82.80;;;;;;6306762;22;20022;-71
2021/03/07 01:05:18;;;;;;;19.95;8.95;;;0.30;82.60;;;;;;6305809;22;19918;-71
2021/03/07 01:07:44;;;;;;;24.33;9.95;;;0.30;82.80;;;;;;6307797;22;20073;-71
2021/03/07 01:10:16;;;;;;;25.98;9.60;;;0.30;83.10;;;;;;6333128;22;20027;-71
2021/03/07 01:12:44;;;;;;;28.48;10.48;;;0.30;82.90;;;;;;6305648;22;20051;-71
2021/03/07 01:15:10;;;;;;;31.25;9.88;;;0.30;83.10;;;;;;6306908;22;20044;-71
2021/03/07 01:17:36;;;;;;;28.67;10.98;;;0.30;83.30;;;;;;6332727;22;20029;-71
2021/03/07 01:20:16;;;;;;;24.15;9.15;;;0.40;83.60;;;;;;6333202;22;20027;-71
2021/03/07 01:22:42;;;;;;;22.98;9.23;;;0.40;83.20;;;;;;6333238;22;20026;-70
2021/03/07 01:25:09;;;;;;;23.10;9.57;;;0.40;83.70;;;;;;6305304;22;20057;-72
2021/03/07 01:27:36;;;;;;;21.67;8.80;;;0.40;83.50;;;;;;6333206;22;20027;-72
2021/03/07 01:30:06;;;;;;;25.33;9.13;;;0.40;83.60;;;;;;6333130;22;20079;-71
2021/03/07 01:32:32;;;;;;;20.67;9.02;;;0.50;83.70;;;;;;6333256;22;20499;-71
2021/03/07 01:34:58;;;;;;;17.88;8.70;;;0.50;84.00;;;;;;6305736;22;20079;-71
2021/03/07 01:37:24;;;;;;;21.77;9.10;;;0.50;84.10;;;;;;6332870;22;20023;-71
2021/03/07 01:39:50;;;;;;;24.85;8.93;;;0.50;84.20;;;;;;6305215;22;20121;-72
2021/03/07 01:42:16;;;;;;;28.88;9.60;;;0.50;84.10;;;;;;6305446;22;20107;-72
2021/03/07 01:44:42;;;;;;;19.08;8.45;;;0.60;83.80;;;;;;6333032;22;20803;-71
2021/03/07 01:47:08;;;;;;;29.58;9.23;;;0.50;84.00;;;;;;6332857;22;20725;-71
2021/03/07 01:49:35;;;;;;;21.25;9.40;;;0.50;84.70;;;;;;6334766;22;20010;-71
2021/03/07 01:52:01;;;;;;;18.35;8.93;;;0.50;84.70;;;;;;6332785;22;20022;-71
2021/03/07 01:54:27;;;;;;;21.83;8.98;;;0.60;84.90;;;;;;6332534;22;20046;-71
2021/03/07 01:56:53;;;;;;;22.73;9.88;;;0.60;85.00;;;;;;6334426;22;20051;-71
2021/03/07 01:59:21;;;;;;;21.08;9.00;;;0.50;84.80;;;;;;6332791;22;20023;-71
2021/03/07 02:01:51;;;;;;;24.13;9.40;;;0.50;85.10;;;;;;6332790;22;20053;-71
2021/03/07 02:04:17;;;;;;;25.10;10.82;;;0.50;85.80;;;;;;6333558;22;20039;-70
2021/03/07 02:06:43;;;;;;;26.20;10.52;;;0.50;86.00;;;;;;6332762;22;20029;-71
2021/03/07 02:09:09;;;;;;;24.77;10.20;;;0.50;85.80;;;;;;6305004;22;20046;-71
2021/03/07 02:11:38;;;;;;;22.73;9.98;;;0.50;86.10;;;;;;6305113;22;20452;-71
2021/03/07 02:14:06;;;;;;;24.23;10.55;;;0.50;85.90;;;;;;6305087;22;20073;-71
2021/03/07 02:16:34;;;;;;;22.15;10.02;;;0.50;86.70;;;;;;6332790;22;20768;-71
2021/03/07 02:19:00;;;;;;;27.33;10.15;;;0.50;87.10;;;;;;6332785;22;20022;-71
2021/03/07 02:21:34;;;;;;;21.42;9.85;;;0.50;87.20;;;;;;6336500;22;20080;-71
2021/03/07 02:24:11;;;;;;;29.95;11.52;;;0.50;87.50;;;;;;6279830;22;20046;-71
2021/03/07 02:26:49;;;;;;;24.77;9.45;;;0.50;87.60;;;;;;6336393;22;20022;-71
2021/03/07 02:29:17;;;;;;;22.17;10.05;;;0.50;87.60;;;;;;6332268;22;20068;-71
2021/03/07 02:31:48;;;;;;;25.02;9.70;;;0.50;88.00;;;;;;6332281;22;20545;-71
2021/03/07 02:34:38;;;;;;;23.27;9.93;;;0.50;88.50;;;;;;6332580;22;20026;-71
2021/03/07 02:37:08;;;;;;;22.83;10.40;;;0.50;88.90;;;;;;6332965;22;20045;-71
2021/03/07 02:39:37;;;;;;;26.23;10.15;;;0.50;89.00;;;;;;6333283;22;20025;-71
2021/03/07 02:42:25;;;;;;;26.67;11.13;;;0.50;89.20;;;;;;6332371;22;20023;-71
2021/03/07 02:45:03;;;;;;;26.63;9.82;;;0.50;89.70;;;;;;6288878;22;20042;-71
2021/03/07 02:47:32;;;;;;;25.33;10.75;;;0.50;89.70;;;;;;6336374;22;20030;-71
2021/03/07 02:50:08;;;;;;;23.30;9.88;;;0.50;89.90;;;;;;6332390;22;20476;-71
2021/03/07 02:52:37;;;;;;;20.60;9.63;;;0.50;90.20;;;;;;6304795;22;20098;-71
2021/03/07 02:55:06;;;;;;;21.30;9.93;;;0.50;90.20;;;;;;6305192;22;20072;-71
2021/03/07 02:57:33;;;;;;;21.83;9.75;;;0.50;90.30;;;;;;6305802;22;20069;-71
2021/03/07 03:00:03;;;;;;;27.20;11.35;;;0.50;90.30;;;;;;6304971;22;20019;-71
2021/03/07 03:02:31;;;;;;;28.48;10.85;;;0.50;90.30;;;;;;6332166;22;20587;-71
2021/03/07 03:04:59;;;;;;;22.98;10.65;;;0.40;90.40;;;;;;6332359;22;20083;-71
2021/03/07 03:07:27;;;;;;;23.05;9.63;;;0.50;90.60;;;;;;6333840;22;20023;-71
2021/03/07 03:09:55;;;;;;;26.92;11.45;;;0.50;90.60;;;;;;6304840;22;20095;-71
2021/03/07 03:12:23;;;;;;;19.70;10.10;;;0.50;90.60;;;;;;6331987;22;20018;-71
2021/03/07 03:14:49;;;;;;;26.02;10.98;;;0.40;91.00;;;;;;6335938;22;20102;-71
2021/03/07 03:17:16;;;;;;;22.35;11.63;;;0.40;91.00;;;;;;6333982;22;20511;-71
2021/03/07 03:19:44;;;;;;;25.60;10.90;;;0.40;91.30;;;;;;6334169;22;20026;-71
2021/03/07 03:22:12;;;;;;;22.55;11.15;;;0.30;91.50;;;;;;6337137;22;20023;-71
2021/03/07 03:24:39;;;;;;;23.55;10.55;;;0.40;91.70;;;;;;6333902;22;20075;-71
2021/03/07 03:27:06;;;;;;;31.85;11.85;;;0.40;91.70;;;;;;6333970;22;20024;-71
2021/03/07 03:29:32;;;;;;;24.92;10.63;;;0.40;91.70;;;;;;6309614;22;20495;-71
2021/03/07 03:32:00;;;;;;;26.02;11.45;;;0.40;91.80;;;;;;6334141;22;20018;-71
2021/03/07 03:34:26;;;;;;;26.45;10.90;;;0.40;92.00;;;;;;6333867;22;20091;-71
2021/03/07 03:36:52;;;;;;;25.33;11.32;;;0.40;92.10;;;;;;6336777;22;20114;-71
2021/03/07 03:39:24;;;;;;;16.90;9.80;;;0.40;92.20;;;;;;6333660;22;20325;-71
2021/03/07 03:41:52;;;;;;;17.52;9.13;;;0.40;92.30;;;;;;6337929;22;20083;-71
2021/03/07 03:44:24;;;;;;;27.77;11.65;;;0.40;92.40;;;;;;6306127;22;20454;-71
2021/03/07 03:46:53;;;;;;;27.08;9.77;;;0.40;92.50;;;;;;6306579;22;20041;-71
2021/03/07 03:49:34;;;;;;;26.13;10.63;;;0.40;92.60;;;;;;6337102;22;20050;-71
2021/03/07 03:52:04;;;;;;;22.88;10.15;;;0.50;92.80;;;;;;6334281;22;20685;-71
2021/03/07 03:54:34;;;;;;;23.73;9.68;;;0.50;93.10;;;;;;6337352;22;20136;-71
2021/03/07 03:57:02;;;;;;;23.58;9.57;;;0.50;93.00;;;;;;6307899;22;20015;-71
2021/03/07 03:59:31;;;;;;;37.33;11.85;;;0.50;93.00;;;;;;6333342;22;20572;-71
2021/03/07 04:01:58;;;;;;;19.48;9.25;;;0.50;93.10;;;;;;6336601;22;20025;-71
2021/03/07 04:04:26;;;;;;;20.65;9.55;;;0.50;93.10;;;;;;6333610;22;20019;-71
2021/03/07 04:06:53;;;;;;;19.33;9.02;;;0.60;93.20;;;;;;6280702;22;20019;-71
2021/03/07 04:09:21;;;;;;;21.27;8.98;;;0.60;93.40;;;;;;6335888;22;20015;-71
2021/03/07 04:11:47;;;;;;;24.00;10.00;;;0.60;93.50;;;;;;6306096;22;20022;-71
2021/03/07 04:14:15;;;;;;;24.48;10.50;;;0.60;93.50;;;;;;6333402;22;20516;-71
2021/03/07 04:16:42;;;;;;;19.92;9.15;;;0.60;93.60;;;;;;6335825;22;20106;-71
2021/03/07 04:19:08;;;;;;;23.30;9.38;;;0.60;93.80;;;;;;6333604;22;20022;-71
2021/03/07 04:21:38;;;;;;;16.38;9.00;;;0.60;93.80;;;;;;6333671;22;20100;-71
2021/03/07 04:24:05;;;;;;;22.02;8.98;;;0.60;94.10;;;;;;6333804;22;20046;-71
2021/03/07 04:26:31;;;;;;;20.63;8.55;;;0.70;94.10;;;;;;6333074;22;20022;-71
2021/03/07 04:28:58;;;;;;;17.42;8.40;;;0.70;94.20;;;;;;6333266;22;20085;-71
2021/03/07 04:31:24;;;;;;;20.48;9.05;;;0.70;94.40;;;;;;6335487;22;20023;-71
2021/03/07 04:33:50;;;;;;;16.42;8.10;;;0.70;94.30;;;;;;6305853;22;20014;-71
2021/03/07 04:36:17;;;;;;;16.83;7.95;;;0.70;94.40;;;;;;6333444;22;20460;-71
2021/03/07 04:38:43;;;;;;;21.70;8.20;;;0.70;94.40;;;;;;6335147;22;20027;-71
2021/03/07 04:41:09;;;;;;;18.67;8.93;;;0.80;94.40;;;;;;6333555;22;20530;-71
2021/03/07 04:43:45;;;;;;;16.55;8.07;;;0.70;94.20;;;;;;6305600;22;20093;-72
2021/03/07 04:46:11;;;;;;;17.35;8.68;;;0.70;94.30;;;;;;6334554;22;20122;-71
2021/03/07 04:48:37;;;;;;;16.50;8.02;;;0.80;94.40;;;;;;6333326;22;20096;-71
2021/03/07 04:51:03;;;;;;;17.25;8.32;;;0.80;94.40;;;;;;6333658;22;20023;-71
2021/03/07 04:53:29;;;;;;;17.70;8.35;;;0.80;94.40;;;;;;6333261;22;20065;-71
2021/03/07 04:55:55;;;;;;;17.02;8.27;;;0.80;94.30;;;;;;6333115;22;20047;-71
2021/03/07 04:58:21;;;;;;;16.02;8.63;;;0.90;94.30;;;;;;6335764;22;20050;-71
2021/03/07 05:00:47;;;;;;;19.98;8.05;;;0.80;94.30;;;;;;6333334;22;20464;-71
2021/03/07 05:03:13;;;;;;;16.25;8.27;;;0.80;94.20;;;;;;6333010;22;20085;-71
2021/03/07 05:05:39;;;;;;;19.33;8.23;;;0.90;94.20;;;;;;6308120;22;20357;-71
2021/03/07 05:08:06;;;;;;;16.30;8.88;;;0.90;94.10;;;;;;6306009;22;20023;-70
2021/03/07 05:10:33;;;;;;;14.18;8.32;;;0.90;94.30;;;;;;6305445;22;20118;-71
2021/03/07 05:12:59;;;;;;;14.98;7.38;;;0.90;94.40;;;;;;6305843;22;20018;-71
2021/03/07 05:15:25;;;;;;;16.42;7.35;;;0.90;94.50;;;;;;6332793;22;20530;-71
2021/03/07 05:17:51;;;;;;;19.48;9.63;;;0.90;94.40;;;;;;6331965;22;20531;-71
2021/03/07 05:20:17;;;;;;;14.80;7.97;;;0.90;94.70;;;;;;6307837;22;20053;-71
2021/03/07 05:22:43;;;;;;;22.85;7.88;;;0.90;94.70;;;;;;6333237;22;20487;-71
2021/03/07 05:25:10;;;;;;;16.38;8.05;;;0.90;94.90;;;;;;6305490;22;20049;-71
2021/03/07 05:27:35;;;;;;;13.80;7.32;;;0.90;95.00;;;;;;6335433;22;20344;-72
2021/03/07 05:30:02;;;;;;;14.27;8.07;;;0.90;94.90;;;;;;6279576;22;20015;-71
2021/03/07 05:32:28;;;;;;;14.55;8.15;;;0.90;95.00;;;;;;6305433;22;20054;-70
2021/03/07 05:34:54;;;;;;;13.95;7.30;;;0.90;94.80;;;;;;6332774;22;20046;-72
2021/03/07 05:37:20;;;;;;;18.65;7.78;;;0.90;95.00;;;;;;6332976;22;20018;-71
2021/03/07 05:39:46;;;;;;;26.65;9.15;;;0.90;95.10;;;;;;6332460;22;20090;-72
2021/03/07 05:42:12;;;;;;;18.50;9.60;;;0.90;95.20;;;;;;6335595;22;20042;-72
2021/03/07 05:44:39;;;;;;;15.82;7.85;;;0.90;95.10;;;;;;6304743;22;20015;-71
2021/03/07 05:47:05;;;;;;;17.05;8.18;;;0.90;95.00;;;;;;6279344;22;20087;-72
2021/03/07 05:49:32;;;;;;;20.02;9.38;;;0.90;95.10;;;;;;6335442;22;20374;-72
2021/03/07 05:51:59;;;;;;;21.67;8.90;;;0.90;95.10;;;;;;6332916;22;20402;-71
2021/03/07 05:54:26;;;;;;;17.83;8.40;;;0.90;95.30;;;;;;6305194;22;20094;-72
2021/03/07 05:56:52;;;;;;;16.70;8.50;;;0.90;95.30;;;;;;6335193;22;20018;-72
2021/03/07 05:59:20;;;;;;;22.70;8.50;;;0.90;95.20;;;;;;6332635;22;20380;-71
2021/03/07 06:01:46;;;;;;;16.95;8.02;;;0.90;95.30;;;;;;6332548;22;20065;-71
2021/03/07 06:04:12;;;;;;;19.60;7.55;;;0.90;95.10;;;;;;6334817;22;20022;-72
2021/03/07 06:06:38;;;;;;;20.55;9.85;;;1.00;95.10;;;;;;6304841;22;20558;-71
2021/03/07 06:09:27;;;;;;;16.38;8.68;;;1.00;95.00;;;;;;6332830;22;20042;-72
2021/03/07 06:12:01;;;;;;;14.18;8.77;;;1.00;94.90;;;;;;6333174;22;20050;-72
2021/03/07 06:14:29;;;;;;;13.88;8.52;;;1.00;95.10;;;;;;6332792;22;20023;-71
2021/03/07 06:17:05;;;;;;;20.33;8.80;;;1.00;95.20;;;;;;6305053;22;20023;-71
2021/03/07 06:19:53;;;;;;;15.73;8.00;;;1.00;95.20;;;;;;6332900;22;20023;-72
2021/03/07 06:22:19;;;;;;;17.08;7.88;;;1.10;94.70;;;;;;6333289;22;20022;-72
2021/03/07 06:24:46;;;;;;;16.98;8.57;;;1.10;94.80;;;;;;6304655;22;20083;-72
2021/03/07 06:27:14;;;;;;;22.35;8.07;;;1.10;94.80;;;;;;6334669;22;20022;-72
2021/03/07 06:29:53;;;;;;;16.08;8.73;;;1.10;94.60;;;;;;6304652;22;20019;-72
2021/03/07 06:32:19;;;;;;;16.33;8.88;;;1.10;94.60;;;;;;6332233;22;20065;-71
2021/03/07 06:34:46;;;;;;;21.20;8.48;;;1.10;94.70;;;;;;6305132;22;20396;-72
2021/03/07 06:37:13;;;;;;;20.88;8.55;;;1.10;94.70;;;;;;6305294;22;20034;-72
2021/03/07 06:39:39;;;;;;;15.10;8.25;;;1.20;94.60;;;;;;6331817;22;20425;-72
2021/03/07 06:42:07;;;;;;;14.00;8.05;;;1.20;94.60;;;;;;6330449;22;20015;-68
2021/03/07 06:44:35;;;;;;;21.58;9.32;;;1.20;94.60;;;;;;6306955;22;20026;-65
2021/03/07 06:47:12;;;;;;;15.63;8.05;;;1.20;94.40;;;;;;6329992;22;20050;-65
2021/03/07 06:49:39;;;;;;;16.98;8.05;;;1.20;94.30;;;;;;6332198;22;20014;-64
2021/03/07 06:52:22;;;;;;;18.75;8.05;;;1.30;94.00;;;;;;6334211;22;20451;-71
2021/03/07 06:55:05;;;;;;;;;;;1.20;94.20;;;;;;6333615;22;20415;-75
2021/03/07 06:57:32;;;;;;;16.42;7.97;;;1.30;94.30;;;;;;6305802;22;20425;-72
2021/03/07 06:59:58;;;;;;;18.23;8.02;;;1.30;94.30;;;;;;6306581;22;20403;-73
2021/03/07 07:02:24;;;;;;;15.93;8.45;;;1.30;93.90;;;;;;6337804;22;20018;-74
2021/03/07 07:04:50;;;;;;;19.52;9.13;;;1.30;94.10;;;;;;6305925;22;20465;-70
2021/03/07 07:07:19;;;;;;;16.55;8.13;;;1.40;94.20;;;;;;6334018;22;20018;-74
2021/03/07 07:09:47;;;;;;;17.65;8.15;;;1.40;93.70;;;;;;6309865;22;20426;-74
2021/03/07 07:12:27;;;;;;;18.10;8.43;;;1.40;93.70;;;;;;6333998;22;20463;-72
2021/03/07 07:15:09;;;;;;;16.27;8.18;;;1.40;93.60;;;;;;6309782;22;20109;-73
2021/03/07 07:17:35;;;;;;;21.33;7.68;;;1.50;93.30;;;;;;6306448;22;20045;-73
2021/03/07 07:20:03;;;;;;;14.55;7.38;;;1.50;93.10;;;;;;6334237;22;20023;-74
2021/03/07 07:22:31;;;;;;;17.45;7.80;;;1.50;93.10;;;;;;6336864;22;20026;-72
2021/03/07 07:24:57;;;;;;;14.05;6.90;;;1.50;93.00;;;;;;6333561;22;20054;-71
2021/03/07 07:27:23;;;;;;;14.60;7.90;;;1.50;92.90;;;;;;6306660;22;20019;-73
2021/03/07 07:29:49;;;;;;;13.88;6.80;;;1.60;92.90;;;;;;6336959;22;20068;-70
2021/03/07 07:32:39;;;;;;;15.48;7.72;;;1.60;92.70;;;;;;6334016;22;20052;-85
2021/03/07 07:35:24;;;;;;;12.93;6.47;;;1.60;92.90;;;;;;6336452;22;20023;-74
2021/03/07 07:37:57;;;;;;;12.15;6.18;;;1.60;92.50;;;;;;6306289;22;20090;-69
2021/03/07 07:40:34;;;;;;;15.25;6.97;;;1.70;92.70;;;;;;6335777;22;20466;-67
2021/03/07 07:43:01;;;;;;;15.55;6.60;;;1.70;92.60;;;;;;6333809;22;20465;-74
2021/03/07 07:45:27;;;;;;;14.68;7.22;;;1.80;92.50;;;;;;6337098;22;20026;-73
2021/03/07 07:47:56;;;;;;;14.63;6.38;;;1.80;92.10;;;;;;6305974;22;20053;-66
2021/03/07 07:50:31;;;;;;;8.10;5.22;;;1.90;91.80;;;;;;6331035;22;20015;-68
2021/03/07 07:53:26;;;;;;;12.00;6.13;;;1.90;91.30;;;;;;6336358;22;20046;-76
2021/03/07 07:56:00;;;;;;;9.90;6.10;;;2.00;90.80;;;;;;6332165;22;20543;-70
2021/03/07 07:58:39;;;;;;;13.77;5.78;;;2.00;90.90;;;;;;6306404;22;20064;-74
2021/03/07 08:01:07;;;;;;;11.90;6.57;;;2.00;90.60;;;;;;6305209;22;20023;-69
2021/03/07 08:03:38;;;;;;;20.85;6.38;;;2.00;90.90;;;;;;6335214;22;20460;-75
2021/03/07 08:06:06;;;;;;;13.25;6.85;;;2.10;90.90;;;;;;6332874;22;20072;-72
2021/03/07 08:08:37;;;;;;;8.52;5.90;;;2.10;91.00;;;;;;6305343;22;20064;-71
2021/03/07 08:11:05;;;;;;;12.82;5.97;;;2.10;90.80;;;;;;6334289;22;20018;-71
2021/03/07 08:13:34;;;;;;;9.57;4.85;;;2.10;90.30;;;;;;6333086;22;20460;-71
2021/03/07 08:16:02;;;;;;;14.38;5.75;;;2.10;90.40;;;;;;6332916;22;20057;-77
2021/03/07 08:18:51;;;;;;;11.70;5.57;;;2.10;90.00;;;;;;6332682;22;20026;-67
2021/03/07 08:21:23;;;;;;;12.52;6.00;;;2.20;90.10;;;;;;6332907;22;20385;-75
2021/03/07 08:24:06;;;;;;;13.52;6.20;;;2.20;90.20;;;;;;6305274;22;20249;-71
2021/03/07 08:26:53;;;;;;;10.00;6.15;;;2.20;90.10;;;;;;6333368;22;20101;-69
2021/03/07 08:29:38;;;;;;;11.40;6.45;;;2.20;90.20;;;;;;6332735;22;20089;-77
2021/03/07 08:32:36;;;;;;;13.60;6.60;;;2.20;90.10;;;;;;6332996;22;20053;-71
2021/03/07 08:35:16;;;;;;;15.35;6.50;;;2.20;90.00;;;;;;6307720;22;20324;-70
2021/03/07 08:38:02;;;;;;;14.38;6.18;;;2.30;89.80;;;;;;6332843;22;20014;-70
2021/03/07 08:40:30;;;;;;;12.20;5.80;;;2.30;89.10;;;;;;6332819;22;20034;-69
2021/03/07 08:43:18;;;;;;;14.63;5.72;;;2.40;88.50;;;;;;6332645;22;20030;-67
2021/03/07 08:46:01;;;;;;;14.00;6.47;;;2.40;88.60;;;;;;6333728;22;20460;-73
2021/03/07 08:48:28;;;;;;;11.50;5.15;;;2.50;88.70;;;;;;6304996;22;20026;-75
2021/03/07 08:50:56;;;;;;;11.00;5.45;;;2.50;87.40;;;;;;6305413;22;20048;-74
2021/03/07 08:53:32;;;;;;;11.25;5.70;;;2.50;87.70;;;;;;6305054;22;20041;-73
2021/03/07 08:55:59;;;;;;;10.10;5.93;;;2.50;87.60;;;;;;6305083;22;20406;-73
2021/03/07 08:58:25;;;;;;;9.95;4.82;;;2.50;87.40;;;;;;6279111;22;20238;-79
2021/03/07 09:00:54;;;;;;;10.23;5.28;;;2.50;88.10;;;;;;6336787;22;20023;-79
2021/03/07 09:03:22;;;;;;;9.82;5.05;;;2.50;87.20;;;;;;6332428;22;20026;-78
2021/03/07 09:05:48;;;;;;;13.05;6.20;;;2.50;86.70;;;;;;6304900;22;20018;-77
2021/03/07 09:08:14;;;;;;;11.73;6.13;;;2.50;86.70;;;;;;6309280;22;20023;-71
2021/03/07 09:10:46;;;;;;;10.68;5.93;;;2.50;86.50;;;;;;6305084;22;20076;-77
2021/03/07 09:13:22;;;;;;;10.48;6.03;;;2.70;86.60;;;;;;6333010;22;20052;-73
2021/03/07 09:15:55;;;;;;;7.18;5.03;;;2.60;86.00;;;;;;6332731;22;20097;-74
2021/03/07 09:18:30;;;;;;;12.48;5.13;;;2.60;85.80;;;;;;6332559;22;20049;-79
2021/03/07 09:21:10;;;;;;;8.88;5.00;;;2.50;86.20;;;;;;6307397;22;20018;-75
2021/03/07 09:23:43;;;;;;;10.20;5.78;;;2.60;87.10;;;;;;6306265;22;20045;-70
2021/03/07 09:26:10;;;;;;;9.57;5.50;;;2.60;85.80;;;;;;6332569;22;20050;-69
2021/03/07 09:28:39;;;;;;;9.88;5.55;;;2.70;85.20;;;;;;6335211;22;20411;-70
2021/03/07 09:31:11;;;;;;;8.55;6.30;;;2.60;85.40;;;;;;6332516;22;20030;-69
2021/03/07 09:33:38;;;;;;;9.73;5.45;;;2.60;85.10;;;;;;6332730;22;20049;-69
2021/03/07 09:36:05;;;;;;;7.40;5.30;;;2.70;84.90;;;;;;6304640;22;20083;-69
2021/03/07 09:38:51;;;;;;;8.80;4.90;;;2.70;84.90;;;;;;6304890;22;20349;-70
2021/03/07 09:41:32;;;;;;;12.30;5.55;;;2.70;84.70;;;;;;6304515;22;20050;-70
2021/03/07 09:44:01;;;;;;;7.72;5.10;;;2.60;84.20;;;;;;6280089;22;20023;-69
2021/03/07 09:46:28;;;;;;;6.72;5.32;;;2.70;84.50;;;;;;6304975;22;20022;-69
2021/03/07 09:48:58;;;;;;;9.73;4.88;;;2.70;84.70;;;;;;6335193;22;20061;-70
2021/03/07 09:51:28;;;;;;;8.73;5.95;;;2.70;84.50;;;;;;6304516;22;20498;-68
2021/03/07 09:53:55;;;;;;;15.35;6.28;;;2.70;84.40;;;;;;6326165;22;20084;-72
2021/03/07 09:56:26;;;;;;;14.57;5.50;;;2.70;84.00;;;;;;6329256;22;20122;-67
2021/03/07 09:58:52;;;;;;;8.65;5.70;;;2.80;84.20;;;;;;6328056;22;20025;-69
2021/03/07 10:01:18;;;;;;;10.02;5.68;;;2.80;84.20;;;;;;6329448;22;20072;-67
2021/03/07 10:03:45;;;;;;;11.77;6.47;;;2.80;84.20;;;;;;6328794;22;20059;-70
2021/03/07 10:06:15;;;;;;;8.77;5.63;;;2.80;83.90;;;;;;6328727;22;20490;-68
2021/03/07 10:08:41;;;;;;;10.60;5.97;;;2.90;83.30;;;;;;6300543;22;20065;-66
2021/03/07 10:11:36;;;;;;;7.30;5.65;;;2.80;83.20;;;;;;6329073;22;20076;-66
2021/03/07 10:14:05;;;;;;;8.85;5.80;;;2.90;84.00;;;;;;6296427;22;20038;-61
2021/03/07 10:16:34;;;;;;;10.52;5.95;;;2.90;83.40;;;;;;6328668;22;20089;-62
2021/03/07 10:19:13;;;;;;;12.18;6.07;;;3.00;83.40;;;;;;6301287;22;20041;-62
2021/03/07 10:21:42;;;;;;;9.90;5.95;;;2.90;82.30;;;;;;6329123;22;20023;-63
2021/03/07 10:24:20;;;;;;;10.88;5.70;;;3.00;82.50;;;;;;6328347;22;20102;-63
2021/03/07 10:26:49;;;;;;;12.82;6.82;;;3.00;82.20;;;;;;6330848;22;20106;-63
2021/03/07 10:29:32;;;;;;;12.07;6.43;;;3.00;82.30;;;;;;6330346;22;20018;-65
2021/03/07 10:32:19;;;;;;;12.90;6.32;;;3.00;82.50;;;;;;6330815;22;20046;-67
2021/03/07 10:34:52;;;;;;;9.82;6.18;;;3.00;82.30;;;;;;6330874;22;20026;-68
2021/03/07 10:37:42;;;;;;;9.55;6.32;;;3.00;82.10;;;;;;6330605;22;20030;-67
2021/03/07 10:40:13;;;;;;;10.68;6.78;;;3.00;82.20;;;;;;6334450;22;20118;-64
2021/03/07 10:42:41;;;;;;;12.25;7.15;;;3.00;82.50;;;;;;6330716;22;20042;-63
2021/03/07 10:45:26;;;;;;;12.63;7.43;;;2.90;82.70;;;;;;6303506;22;20042;-62
2021/03/07 10:48:03;;;;;;;12.15;6.70;;;2.90;83.10;;;;;;6331082;22;20544;-64
2021/03/07 10:50:30;;;;;;;11.95;7.05;;;2.90;82.70;;;;;;6331542;22;20029;-68
2021/03/07 10:52:57;;;;;;;17.45;7.65;;;2.90;82.70;;;;;;6302083;22;20361;-65
2021/03/07 10:55:26;;;;;;;10.18;7.18;;;3.00;82.40;;;;;;6334002;22;20022;-65
2021/03/07 10:57:53;;;;;;;12.45;7.65;;;3.00;83.00;;;;;;6328402;22;20027;-67
2021/03/07 11:00:20;;;;;;;10.82;7.18;;;2.90;82.80;;;;;;6330424;22;20528;-71
2021/03/07 11:02:46;;;;;;;16.80;7.53;;;2.90;82.20;;;;;;6334276;22;20018;-61
2021/03/07 11:05:13;;;;;;;13.95;7.80;;;2.90;82.80;;;;;;6332735;22;20034;-61
2021/03/07 11:07:41;;;;;;;12.25;7.95;;;2.90;83.00;;;;;;6329526;22;20094;-60
2021/03/07 11:10:09;;;;;;;14.15;7.70;;;3.00;83.10;;;;;;6330148;22;20023;-66
2021/03/07 11:12:36;;;;;;;11.90;7.78;;;3.00;83.30;;;;;;6304659;22;20546;-70
2021/03/07 11:15:05;;;;;;;14.25;8.63;;;3.00;83.50;;;;;;6330342;22;20022;-63
2021/03/07 11:17:31;;;;;;;15.93;8.95;;;3.00;83.80;;;;;;6302460;22;20019;-63
2021/03/07 11:19:58;;;;;;;13.80;8.88;;;3.00;84.20;;;;;;6333735;22;20025;-63
2021/03/07 11:22:24;;;;;;;14.30;8.75;;;3.00;84.70;;;;;;6329392;22;20019;-62
2021/03/07 11:24:50;;;;;;;13.15;8.77;;;3.00;84.00;;;;;;6330634;22;20369;-63
2021/03/07 11:27:16;;;;;;;15.75;10.00;;;3.00;84.20;;;;;;6302756;22;20023;-63
2021/03/07 11:29:43;;;;;;;15.80;10.18;;;3.00;83.90;;;;;;6329613;22;20027;-63
2021/03/07 11:32:09;;;;;;;12.18;9.38;;;3.10;83.60;;;;;;6330155;22;20430;-65
2021/03/07 11:34:35;;;;;;;18.42;9.57;;;3.10;84.00;;;;;;6330244;22;20022;-63
2021/03/07 11:37:03;;;;;;;15.27;9.90;;;3.10;83.90;;;;;;6302221;22;20014;-64
2021/03/07 11:39:29;;;;;;;15.15;9.43;;;3.10;83.70;;;;;;6332470;22;20402;-62
2021/03/07 11:41:55;;;;;;;16.73;9.38;;;3.10;83.90;;;;;;6329963;22;20022;-62
2021/03/07 11:44:22;;;;;;;15.38;10.05;;;3.00;84.00;;;;;;6329829;22;20023;-62
2021/03/07 11:46:51;;;;;;;12.57;8.85;;;3.10;84.20;;;;;;6333436;22;20476;-62
2021/03/07 11:49:18;;;;;;;12.52;8.80;;;3.00;84.20;;;;;;6329732;22;20018;-62
2021/03/07 11:51:44;;;;;;;15.65;10.15;;;3.00;84.10;;;;;;6302630;22;20709;-64
2021/03/07 11:54:10;;;;;;;15.60;9.68;;;3.00;84.40;;;;;;6332918;22;20360;-62
2021/03/07 11:56:36;;;;;;;17.63;9.52;;;3.00;84.70;;;;;;6333154;22;20023;-62
2021/03/07 11:59:03;;;;;;;12.45;9.05;;;3.00;84.30;;;;;;6327747;22;20060;-61
2021/03/07 12:01:28;;;;;;;16.98;9.85;;;3.00;84.40;;;;;;6330089;22;20087;-62
2021/03/07 12:03:54;;;;;;;16.63;10.15;;;3.00;83.70;;;;;;6330762;22;20153;-61
2021/03/07 12:06:21;;;;;;;14.75;8.63;;;3.10;84.20;;;;;;6329729;22;20364;-62
2021/03/07 12:08:47;;;;;;;13.55;8.90;;;3.00;84.70;;;;;;6328942;22;20029;-62
2021/03/07 12:11:14;;;;;;;16.52;9.43;;;3.00;84.10;;;;;;6302243;22;20102;-67
2021/03/07 12:13:40;;;;;;;18.90;9.70;;;3.00;84.70;;;;;;6329504;22;20481;-66
2021/03/07 12:16:06;;;;;;;17.15;10.48;;;3.00;84.50;;;;;;6331499;22;20018;-65
2021/03/07 12:18:35;;;;;;;13.35;8.98;;;3.00;85.10;;;;;;6329882;22;20027;-62
2021/03/07 12:21:02;;;;;;;17.80;10.35;;;3.10;84.70;;;;;;6330214;22;20019;-62
2021/03/07 12:23:28;;;;;;;18.15;9.60;;;3.10;84.80;;;;;;6328997;22;20183;-61
2021/03/07 12:25:54;;;;;;;28.00;14.23;;;3.10;85.20;;;;;;6330298;22;20553;-61
2021/03/07 12:28:21;;;;;;;18.85;11.93;;;3.00;85.50;;;;;;6301729;22;20476;-61
2021/03/07 12:30:47;;;;;;;15.48;10.45;;;3.10;85.70;;;;;;6332881;22;20018;-60
2021/03/07 12:33:13;;;;;;;16.08;10.20;;;3.00;85.40;;;;;;6332033;22;20026;-63
2021/03/07 12:35:39;;;;;;;16.25;9.98;;;3.00;85.00;;;;;;6329424;22;20042;-62
2021/03/07 12:38:06;;;;;;;17.05;9.68;;;3.10;84.50;;;;;;6329200;22;20287;-63
2021/03/07 12:40:32;;;;;;;15.52;9.30;;;3.10;84.10;;;;;;6304579;22;20101;-61
2021/03/07 12:42:58;;;;;;;16.08;9.63;;;3.10;83.40;;;;;;6328231;22;20491;-63
2021/03/07 12:45:25;;;;;;;16.08;9.15;;;3.20;82.70;;;;;;6302240;22;20642;-63
2021/03/07 12:47:51;;;;;;;17.52;10.05;;;3.20;82.80;;;;;;6305752;22;20019;-64
2021/03/07 12:50:17;;;;;;;13.57;9.02;;;3.20;82.50;;;;;;6300013;22;20029;-62
2021/03/07 12:52:43;;;;;;;16.23;10.18;;;3.30;82.10;;;;;;6329509;22;20022;-64
2021/03/07 12:55:10;;;;;;;16.35;9.73;;;3.30;82.60;;;;;;6302788;22;20046;-66
2021/03/07 12:57:36;;;;;;;17.63;9.90;;;3.20;82.90;;;;;;6300314;22;20015;-65